sensor_id;sensor_type;location;lat;lon;timestamp;pressure;altitude;pressure_sealevel;temperature;humidity
68230;BME280;55048;52.220;5.160;2023-05-19T00:02:07;102450.50;;;9.98;67.58
68230;BME280;55048;52.220;5.160;2023-05-19T00:04:33;102563.94;;;10.68;68.28
68230;BME280;55048;52.220;5.160;2023-05-19T00:06:59;102535.59;;;10.54;68.54
68230;BME280;55048;52.220;5.160;2023-05-19T00:09:25;102671.97;;;11.19;68.28
68230;BME280;55048;52.220;5.160;2023-05-19T00:11:51;102706.00;;;11.23;68.98
68230;BME280;55048;52.220;5.160;2023-05-19T00:14:20;102619.59;;;10.91;69.65
68230;BME280;55048;52.220;5.160;2023-05-19T00:17:00;102702.44;;;11.10;70.28
68230;BME280;55048;52.220;5.160;2023-05-19T00:19:26;102706.91;;;11.37;69.91
68230;BME280;55048;52.220;5.160;2023-05-19T00:21:57;102683.84;;;11.16;70.11
68230;BME280;55048;52.220;5.160;2023-05-19T00:24:23;102267.63;;;8.24;69.55
68230;BME280;55048;52.220;5.160;2023-05-19T00:26:48;102605.16;;;10.79;69.52
68230;BME280;55048;52.220;5.160;2023-05-19T00:29:14;102709.16;;;11.34;70.24
68230;BME280;55048;52.220;5.160;2023-05-19T00:31:44;102708.06;;;11.28;70.37
68230;BME280;55048;52.220;5.160;2023-05-19T00:34:10;102372.63;;;9.05;70.33
68230;BME280;55048;52.220;5.160;2023-05-19T00:36:36;102148.25;;;7.59;70.90
68230;BME280;55048;52.220;5.160;2023-05-19T00:39:02;102681.97;;;10.61;70.51
68230;BME280;55048;52.220;5.160;2023-05-19T00:41:28;102433.06;;;9.46;70.73
68230;BME280;55048;52.220;5.160;2023-05-19T00:43:54;102490.63;;;9.82;70.61
68230;BME280;55048;52.220;5.160;2023-05-19T00:46:19;102634.41;;;10.51;71.77
68230;BME280;55048;52.220;5.160;2023-05-19T00:48:47;102526.38;;;9.79;72.06
68230;BME280;55048;52.220;5.160;2023-05-19T00:51:13;102228.09;;;7.92;71.50
68230;BME280;55048;52.220;5.160;2023-05-19T00:53:41;102481.78;;;9.75;71.58
68230;BME280;55048;52.220;5.160;2023-05-19T00:56:08;102113.94;;;7.36;71.93
68230;BME280;55048;52.220;5.160;2023-05-19T00:58:35;102387.81;;;8.60;71.79
68230;BME280;55048;52.220;5.160;2023-05-19T01:01:02;102544.47;;;9.54;73.84
68230;BME280;55048;52.220;5.160;2023-05-19T01:03:32;102501.50;;;9.65;72.96
68230;BME280;55048;52.220;5.160;2023-05-19T01:06:04;102477.88;;;9.34;72.46
68230;BME280;55048;52.220;5.160;2023-05-19T01:08:31;102437.41;;;9.32;72.25
68230;BME280;55048;52.220;5.160;2023-05-19T01:10:57;102712.75;;;10.91;73.28
68230;BME280;55048;52.220;5.160;2023-05-19T01:13:23;102702.81;;;10.79;74.27
68230;BME280;55048;52.220;5.160;2023-05-19T01:16:17;102700.78;;;10.81;73.35
68230;BME280;55048;52.220;5.160;2023-05-19T01:18:55;102697.03;;;10.75;74.49
68230;BME280;55048;52.220;5.160;2023-05-19T01:32:09;102698.69;;;10.76;73.81
68230;BME280;55048;52.220;5.160;2023-05-19T01:34:41;102600.28;;;10.12;74.98
68230;BME280;55048;52.220;5.160;2023-05-19T01:37:07;102672.09;;;10.55;75.00
68230;BME280;55048;52.220;5.160;2023-05-19T01:39:34;102662.84;;;10.51;75.06
68230;BME280;55048;52.220;5.160;2023-05-19T01:42:01;102504.50;;;9.41;75.29
68230;BME280;55048;52.220;5.160;2023-05-19T01:44:27;102640.91;;;10.06;75.76
68230;BME280;55048;52.220;5.160;2023-05-19T01:46:53;102664.31;;;10.53;75.24
68230;BME280;55048;52.220;5.160;2023-05-19T01:49:19;102374.41;;;8.47;74.87
68230;BME280;55048;52.220;5.160;2023-05-19T01:51:45;102163.84;;;7.10;75.13
68230;BME280;55048;52.220;5.160;2023-05-19T01:54:10;102645.31;;;10.35;75.83
68230;BME280;55048;52.220;5.160;2023-05-19T01:57:02;102667.97;;;10.52;76.07
68230;BME280;55048;52.220;5.160;2023-05-19T01:59:51;102276.16;;;7.75;75.64
68230;BME280;55048;52.220;5.160;2023-05-19T02:02:28;102674.78;;;10.55;75.65
68230;BME280;55048;52.220;5.160;2023-05-19T02:05:08;102377.03;;;8.32;75.51
68230;BME280;55048;52.220;5.160;2023-05-19T02:07:40;102665.06;;;10.47;76.39
68230;BME280;55048;52.220;5.160;2023-05-19T02:10:27;102662.03;;;10.50;76.39
68230;BME280;55048;52.220;5.160;2023-05-19T02:12:57;102670.03;;;10.50;76.39
68230;BME280;55048;52.220;5.160;2023-05-19T02:15:28;102599.97;;;10.00;75.86
68230;BME280;55048;52.220;5.160;2023-05-19T02:17:56;102443.53;;;9.11;76.30
68230;BME280;55048;52.220;5.160;2023-05-19T02:20:24;102608.88;;;10.14;76.98
68230;BME280;55048;52.220;5.160;2023-05-19T02:22:50;102488.41;;;9.28;76.06
68230;BME280;55048;52.220;5.160;2023-05-19T02:25:19;102381.88;;;8.73;76.42
68230;BME280;55048;52.220;5.160;2023-05-19T02:27:46;102149.06;;;7.01;77.43
68230;BME280;55048;52.220;5.160;2023-05-19T02:30:13;102461.06;;;8.76;77.30
68230;BME280;55048;52.220;5.160;2023-05-19T02:32:42;102357.94;;;8.07;77.04
68230;BME280;55048;52.220;5.160;2023-05-19T02:35:12;102658.69;;;10.41;77.31
68230;BME280;55048;52.220;5.160;2023-05-19T02:37:38;102275.41;;;8.10;76.74
68230;BME280;55048;52.220;5.160;2023-05-19T02:40:04;102593.06;;;10.06;77.54
68230;BME280;55048;52.220;5.160;2023-05-19T02:42:30;102413.31;;;8.61;77.13
68230;BME280;55048;52.220;5.160;2023-05-19T02:44:56;102609.97;;;10.19;77.34
68230;BME280;55048;52.220;5.160;2023-05-19T02:47:25;102501.47;;;9.44;78.10
68230;BME280;55048;52.220;5.160;2023-05-19T02:49:51;102651.47;;;10.35;77.76
68230;BME280;55048;52.220;5.160;2023-05-19T02:54:52;102610.97;;;10.18;77.34
68230;BME280;55048;52.220;5.160;2023-05-19T02:57:18;102603.75;;;10.12;77.43
68230;BME280;55048;52.220;5.160;2023-05-19T02:59:43;102614.66;;;10.17;77.88
68230;BME280;55048;52.220;5.160;2023-05-19T03:02:09;102614.56;;;10.11;78.14
68230;BME280;55048;52.220;5.160;2023-05-19T03:04:34;102622.06;;;10.22;77.81
68230;BME280;55048;52.220;5.160;2023-05-19T03:07:06;102633.50;;;10.22;78.53
68230;BME280;55048;52.220;5.160;2023-05-19T03:09:34;102618.06;;;10.11;78.56
68230;BME280;55048;52.220;5.160;2023-05-19T03:12:00;102625.84;;;10.13;79.22
68230;BME280;55048;52.220;5.160;2023-05-19T03:14:28;102614.06;;;10.01;79.05
68230;BME280;55048;52.220;5.160;2023-05-19T03:16:54;102592.28;;;9.90;79.22
68230;BME280;55048;52.220;5.160;2023-05-19T03:19:20;102612.63;;;9.98;80.31
68230;BME280;55048;52.220;5.160;2023-05-19T03:21:46;102639.63;;;10.02;80.53
68230;BME280;55048;52.220;5.160;2023-05-19T03:24:12;102561.53;;;9.45;80.60
68230;BME280;55048;52.220;5.160;2023-05-19T03:26:37;102620.44;;;9.85;80.44
68230;BME280;55048;52.220;5.160;2023-05-19T03:29:03;102633.34;;;9.88;80.69
68230;BME280;55048;52.220;5.160;2023-05-19T03:31:30;102634.88;;;9.97;80.27
68230;BME280;55048;52.220;5.160;2023-05-19T03:33:57;102630.84;;;10.01;80.06
68230;BME280;55048;52.220;5.160;2023-05-19T03:36:23;102605.13;;;9.87;80.02
68230;BME280;55048;52.220;5.160;2023-05-19T03:38:49;102601.19;;;9.83;79.80
68230;BME280;55048;52.220;5.160;2023-05-19T03:41:14;102621.22;;;10.00;80.79
68230;BME280;55048;52.220;5.160;2023-05-19T03:43:40;102605.13;;;9.87;81.04
68230;BME280;55048;52.220;5.160;2023-05-19T03:46:06;102624.69;;;10.01;80.45
68230;BME280;55048;52.220;5.160;2023-05-19T03:48:55;102605.06;;;9.80;81.31
68230;BME280;55048;52.220;5.160;2023-05-19T03:51:39;102606.72;;;9.81;81.73
68230;BME280;55048;52.220;5.160;2023-05-19T03:54:17;102607.63;;;9.74;82.27
68230;BME280;55048;52.220;5.160;2023-05-19T03:56:43;102602.97;;;9.76;81.71
68230;BME280;55048;52.220;5.160;2023-05-19T03:59:08;102578.91;;;9.62;81.57
68230;BME280;55048;52.220;5.160;2023-05-19T04:01:37;102621.41;;;9.99;81.14
68230;BME280;55048;52.220;5.160;2023-05-19T04:04:03;102553.22;;;9.48;82.40
68230;BME280;55048;52.220;5.160;2023-05-19T04:06:29;102620.31;;;9.93;82.09
68230;BME280;55048;52.220;5.160;2023-05-19T04:08:55;102625.06;;;9.97;81.42
68230;BME280;55048;52.220;5.160;2023-05-19T04:11:21;102609.69;;;9.93;81.93
68230;BME280;55048;52.220;5.160;2023-05-19T04:13:48;102625.16;;;10.04;81.82
68230;BME280;55048;52.220;5.160;2023-05-19T04:16:15;102561.75;;;9.65;81.98
68230;BME280;55048;52.220;5.160;2023-05-19T04:18:44;102622.84;;;10.01;81.81
68230;BME280;55048;52.220;5.160;2023-05-19T04:21:10;102616.16;;;10.05;82.96
68230;BME280;55048;52.220;5.160;2023-05-19T04:23:36;102610.34;;;9.95;81.50
68230;BME280;55048;52.220;5.160;2023-05-19T04:26:03;102633.94;;;10.05;82.59
68230;BME280;55048;52.220;5.160;2023-05-19T04:28:31;102595.25;;;9.81;82.16
68230;BME280;55048;52.220;5.160;2023-05-19T04:31:00;102557.41;;;9.57;81.80
68230;BME280;55048;52.220;5.160;2023-05-19T04:33:26;102579.78;;;9.69;82.02
68230;BME280;55048;52.220;5.160;2023-05-19T04:35:54;102594.88;;;9.84;82.32
68230;BME280;55048;52.220;5.160;2023-05-19T04:38:19;102625.16;;;10.04;82.57
68230;BME280;55048;52.220;5.160;2023-05-19T04:40:47;102634.41;;;10.08;82.21
68230;BME280;55048;52.220;5.160;2023-05-19T04:43:14;102637.94;;;10.15;82.63
68230;BME280;55048;52.220;5.160;2023-05-19T04:45:41;102636.91;;;10.16;82.88
68230;BME280;55048;52.220;5.160;2023-05-19T04:48:08;102634.00;;;10.11;82.66
68230;BME280;55048;52.220;5.160;2023-05-19T04:50:34;102635.81;;;10.26;82.44
68230;BME280;55048;52.220;5.160;2023-05-19T04:53:03;102643.34;;;10.22;83.40
68230;BME280;55048;52.220;5.160;2023-05-19T04:55:28;102620.09;;;10.09;83.07
68230;BME280;55048;52.220;5.160;2023-05-19T04:57:54;102645.06;;;10.30;82.69
68230;BME280;55048;52.220;5.160;2023-05-19T05:00:20;102644.44;;;10.28;82.93
68230;BME280;55048;52.220;5.160;2023-05-19T05:03:01;102600.16;;;9.99;83.16
68230;BME280;55048;52.220;5.160;2023-05-19T05:05:30;102648.97;;;10.34;82.78
68230;BME280;55048;52.220;5.160;2023-05-19T05:07:57;102650.06;;;10.39;82.77
68230;BME280;55048;52.220;5.160;2023-05-19T05:10:25;102565.25;;;9.87;83.07
68230;BME280;55048;52.220;5.160;2023-05-19T05:12:52;102628.94;;;10.31;83.32
68230;BME280;55048;52.220;5.160;2023-05-19T05:15:18;102653.66;;;10.53;82.74
68230;BME280;55048;52.220;5.160;2023-05-19T05:17:48;102635.19;;;10.45;82.71
68230;BME280;55048;52.220;5.160;2023-05-19T05:20:14;102649.69;;;10.64;82.79
68230;BME280;55048;52.220;5.160;2023-05-19T05:22:44;102650.75;;;10.69;82.37
68230;BME280;55048;52.220;5.160;2023-05-19T05:25:11;102623.09;;;10.42;82.64
68230;BME280;55048;52.220;5.160;2023-05-19T05:27:37;102630.72;;;10.52;82.49
68230;BME280;55048;52.220;5.160;2023-05-19T05:30:05;102664.50;;;10.73;82.79
68230;BME280;55048;52.220;5.160;2023-05-19T05:32:33;102659.78;;;10.75;82.62
68230;BME280;55048;52.220;5.160;2023-05-19T05:35:02;102672.88;;;10.77;82.96
68230;BME280;55048;52.220;5.160;2023-05-19T05:37:30;102619.91;;;10.54;82.26
68230;BME280;55048;52.220;5.160;2023-05-19T05:39:55;102669.31;;;10.91;82.30
68230;BME280;55048;52.220;5.160;2023-05-19T05:42:21;102636.41;;;10.70;83.16
68230;BME280;55048;52.220;5.160;2023-05-19T05:44:48;102674.25;;;10.94;82.81
68230;BME280;55048;52.220;5.160;2023-05-19T05:47:14;102657.13;;;11.03;82.45
68230;BME280;55048;52.220;5.160;2023-05-19T05:49:40;102631.47;;;10.95;82.01
68230;BME280;55048;52.220;5.160;2023-05-19T05:52:10;102611.19;;;10.94;81.61
68230;BME280;55048;52.220;5.160;2023-05-19T05:54:43;102654.94;;;11.48;81.19
68230;BME280;55048;52.220;5.160;2023-05-19T05:57:09;102628.97;;;11.63;80.93
68230;BME280;55048;52.220;5.160;2023-05-19T05:59:35;102662.56;;;12.19;80.08
68230;BME280;55048;52.220;5.160;2023-05-19T06:02:04;102646.22;;;12.55;78.47
68230;BME280;55048;52.220;5.160;2023-05-19T06:04:34;102660.53;;;13.00;76.60
68230;BME280;55048;52.220;5.160;2023-05-19T06:06:59;102636.69;;;13.12;74.88
68230;BME280;55048;52.220;5.160;2023-05-19T06:09:27;102639.97;;;13.34;73.90
68230;BME280;55048;52.220;5.160;2023-05-19T06:11:54;102639.69;;;13.49;72.45
68230;BME280;55048;52.220;5.160;2023-05-19T06:14:19;102664.81;;;13.86;71.83
68230;BME280;55048;52.220;5.160;2023-05-19T06:17:03;102669.19;;;14.12;71.02
68230;BME280;55048;52.220;5.160;2023-05-19T06:19:29;102639.88;;;13.99;69.62
68230;BME280;55048;52.220;5.160;2023-05-19T06:21:55;102624.34;;;14.08;69.51
68230;BME280;55048;52.220;5.160;2023-05-19T06:24:21;102631.66;;;14.25;69.00
68230;BME280;55048;52.220;5.160;2023-05-19T06:26:46;102655.16;;;14.23;68.63
68230;BME280;55048;52.220;5.160;2023-05-19T06:29:13;102630.91;;;14.12;68.56
68230;BME280;55048;52.220;5.160;2023-05-19T06:31:38;102626.91;;;14.27;67.81
68230;BME280;55048;52.220;5.160;2023-05-19T06:34:08;102656.94;;;14.61;66.52
68230;BME280;55048;52.220;5.160;2023-05-19T06:36:38;102576.50;;;14.24;67.01
68230;BME280;55048;52.220;5.160;2023-05-19T06:39:04;102645.09;;;14.75;66.14
68230;BME280;55048;52.220;5.160;2023-05-19T06:41:31;102648.31;;;14.84;65.30
68230;BME280;55048;52.220;5.160;2023-05-19T06:43:57;102583.31;;;14.45;64.85
68230;BME280;55048;52.220;5.160;2023-05-19T06:46:22;102516.31;;;14.09;63.99
68230;BME280;55048;52.220;5.160;2023-05-19T06:48:48;102628.13;;;14.82;63.47
68230;BME280;55048;52.220;5.160;2023-05-19T06:51:16;102629.28;;;14.92;62.99
68230;BME280;55048;52.220;5.160;2023-05-19T06:53:47;102653.91;;;15.19;62.50
68230;BME280;55048;52.220;5.160;2023-05-19T06:56:13;102655.09;;;15.23;62.06
68230;BME280;55048;52.220;5.160;2023-05-19T06:58:39;102634.78;;;15.16;61.71
68230;BME280;55048;52.220;5.160;2023-05-19T07:01:05;102653.19;;;15.30;61.19
68230;BME280;55048;52.220;5.160;2023-05-19T07:03:37;102661.91;;;15.44;60.67
68230;BME280;55048;52.220;5.160;2023-05-19T07:06:02;102663.59;;;15.39;60.16
68230;BME280;55048;52.220;5.160;2023-05-19T07:08:29;102628.00;;;15.31;60.05
68230;BME280;55048;52.220;5.160;2023-05-19T07:10:58;102630.00;;;15.36;59.85
68230;BME280;55048;52.220;5.160;2023-05-19T07:13:23;102609.78;;;15.22;59.82
68230;BME280;55048;52.220;5.160;2023-05-19T07:15:49;102625.84;;;15.22;60.39
68230;BME280;55048;52.220;5.160;2023-05-19T07:18:16;102659.75;;;15.35;60.21
68230;BME280;55048;52.220;5.160;2023-05-19T07:20:42;102651.31;;;15.13;60.42
68230;BME280;55048;52.220;5.160;2023-05-19T07:23:07;102630.38;;;15.03;60.23
68230;BME280;55048;52.220;5.160;2023-05-19T07:25:34;102631.34;;;15.09;60.13
68230;BME280;55048;52.220;5.160;2023-05-19T07:27:59;102662.84;;;15.31;60.07
68230;BME280;55048;52.220;5.160;2023-05-19T07:30:26;102635.97;;;15.38;60.02
68230;BME280;55048;52.220;5.160;2023-05-19T07:32:52;102619.16;;;15.31;59.44
68230;BME280;55048;52.220;5.160;2023-05-19T07:35:19;102590.72;;;15.12;58.37
68230;BME280;55048;52.220;5.160;2023-05-19T07:37:44;102660.44;;;15.60;58.61
68230;BME280;55048;52.220;5.160;2023-05-19T07:40:10;102651.47;;;15.54;58.55
68230;BME280;55048;52.220;5.160;2023-05-19T07:42:35;102652.59;;;15.65;58.64
68230;BME280;55048;52.220;5.160;2023-05-19T07:45:01;102601.19;;;15.50;58.70
68230;BME280;55048;52.220;5.160;2023-05-19T07:47:29;102644.13;;;15.80;58.58
68230;BME280;55048;52.220;5.160;2023-05-19T07:49:55;102629.09;;;15.61;58.31
68230;BME280;55048;52.220;5.160;2023-05-19T07:52:20;102621.00;;;15.67;58.34
68230;BME280;55048;52.220;5.160;2023-05-19T07:54:46;102640.44;;;15.93;57.79
68230;BME280;55048;52.220;5.160;2023-05-19T07:57:11;102593.53;;;15.84;57.02
68230;BME280;55048;52.220;5.160;2023-05-19T07:59:38;102626.09;;;16.41;56.40
68230;BME280;55048;52.220;5.160;2023-05-19T08:02:04;102650.69;;;16.79;55.80
68230;BME280;55048;52.220;5.160;2023-05-19T08:04:29;102571.22;;;16.48;54.86
68230;BME280;55048;52.220;5.160;2023-05-19T08:06:55;102628.38;;;17.02;54.27
68230;BME280;55048;52.220;5.160;2023-05-19T08:09:20;102612.69;;;16.99;53.53
68230;BME280;55048;52.220;5.160;2023-05-19T08:11:46;102636.34;;;17.38;53.57
68230;BME280;55048;52.220;5.160;2023-05-19T08:14:11;102641.81;;;17.43;52.71
68230;BME280;55048;52.220;5.160;2023-05-19T08:16:37;102638.41;;;17.47;51.90
68230;BME280;55048;52.220;5.160;2023-05-19T08:19:02;102632.13;;;17.70;51.35
68230;BME280;55048;52.220;5.160;2023-05-19T08:21:30;102580.31;;;17.75;51.03
68230;BME280;55048;52.220;5.160;2023-05-19T08:23:59;102614.19;;;18.04;50.08
68230;BME280;55048;52.220;5.160;2023-05-19T08:26:25;102606.38;;;18.03;50.24
68230;BME280;55048;52.220;5.160;2023-05-19T08:28:51;102621.88;;;18.13;50.40
68230;BME280;55048;52.220;5.160;2023-05-19T08:31:16;102608.75;;;18.16;50.05
68230;BME280;55048;52.220;5.160;2023-05-19T08:33:43;102596.84;;;17.95;49.35
68230;BME280;55048;52.220;5.160;2023-05-19T08:36:08;102597.06;;;17.94;49.51
68230;BME280;55048;52.220;5.160;2023-05-19T08:38:34;102609.38;;;17.90;49.39
68230;BME280;55048;52.220;5.160;2023-05-19T08:41:00;102614.28;;;17.93;48.74
68230;BME280;55048;52.220;5.160;2023-05-19T08:43:26;102615.47;;;17.56;48.68
68230;BME280;55048;52.220;5.160;2023-05-19T08:45:52;102582.94;;;17.29;48.96
68230;BME280;55048;52.220;5.160;2023-05-19T08:48:18;102596.09;;;17.43;48.95
68230;BME280;55048;52.220;5.160;2023-05-19T08:53:26;102616.44;;;18.24;48.41
68230;BME280;55048;52.220;5.160;2023-05-19T08:56:28;102612.50;;;18.32;47.96
68230;BME280;55048;52.220;5.160;2023-05-19T08:58:55;102602.16;;;18.41;48.44
68230;BME280;55048;52.220;5.160;2023-05-19T09:01:24;102597.09;;;18.61;48.04
68230;BME280;55048;52.220;5.160;2023-05-19T09:03:50;102580.41;;;18.64;46.99
68230;BME280;55048;52.220;5.160;2023-05-19T09:06:16;102599.31;;;19.03;46.29
68230;BME280;55048;52.220;5.160;2023-05-19T09:08:42;102597.72;;;19.29;46.15
68230;BME280;55048;52.220;5.160;2023-05-19T09:11:08;102592.00;;;19.47;45.68
68230;BME280;55048;52.220;5.160;2023-05-19T09:13:34;102596.56;;;19.69;44.97
68230;BME280;55048;52.220;5.160;2023-05-19T09:16:00;102591.22;;;19.74;44.52
68230;BME280;55048;52.220;5.160;2023-05-19T09:18:27;102599.38;;;19.79;44.54
68230;BME280;55048;52.220;5.160;2023-05-19T09:21:00;102562.47;;;19.62;44.71
68230;BME280;55048;52.220;5.160;2023-05-19T09:23:27;102592.38;;;19.83;45.35
68230;BME280;55048;52.220;5.160;2023-05-19T09:25:54;102585.69;;;19.91;45.17
68230;BME280;55048;52.220;5.160;2023-05-19T09:28:30;102586.09;;;20.04;45.01
68230;BME280;55048;52.220;5.160;2023-05-19T09:31:07;102588.31;;;20.12;44.90
68230;BME280;55048;52.220;5.160;2023-05-19T09:33:42;102588.31;;;19.80;45.03
68230;BME280;55048;52.220;5.160;2023-05-19T09:36:08;102597.69;;;19.73;45.54
68230;BME280;55048;52.220;5.160;2023-05-19T09:38:35;102588.66;;;19.62;45.46
68230;BME280;55048;52.220;5.160;2023-05-19T09:41:01;102588.13;;;19.87;44.77
68230;BME280;55048;52.220;5.160;2023-05-19T09:43:31;102580.28;;;19.91;42.45
68230;BME280;55048;52.220;5.160;2023-05-19T09:48:25;102588.81;;;20.09;43.31
68230;BME280;55048;52.220;5.160;2023-05-19T09:50:52;102592.38;;;20.10;42.92
68230;BME280;55048;52.220;5.160;2023-05-19T09:53:20;102592.88;;;20.07;42.35
68230;BME280;55048;52.220;5.160;2023-05-19T09:55:45;102503.03;;;19.57;42.03
68230;BME280;55048;52.220;5.160;2023-05-19T09:58:15;102529.13;;;19.74;41.12
68230;BME280;55048;52.220;5.160;2023-05-19T10:00:43;102582.53;;;19.99;41.06
68230;BME280;55048;52.220;5.160;2023-05-19T10:03:09;102514.19;;;19.39;40.70
68230;BME280;55048;52.220;5.160;2023-05-19T10:05:36;102580.16;;;19.75;41.08
68230;BME280;55048;52.220;5.160;2023-05-19T10:08:02;102581.13;;;19.91;40.68
68230;BME280;55048;52.220;5.160;2023-05-19T10:10:32;102594.19;;;20.04;40.74
68230;BME280;55048;52.220;5.160;2023-05-19T10:12:57;102587.41;;;20.34;40.45
68230;BME280;55048;52.220;5.160;2023-05-19T10:15:23;102547.00;;;20.49;39.57
68230;BME280;55048;52.220;5.160;2023-05-19T10:17:50;102458.94;;;20.11;39.46
68230;BME280;55048;52.220;5.160;2023-05-19T10:20:15;102569.97;;;21.04;39.42
68230;BME280;55048;52.220;5.160;2023-05-19T10:22:43;102564.00;;;20.97;38.84
68230;BME280;55048;52.220;5.160;2023-05-19T10:25:10;102550.59;;;20.65;39.21
68230;BME280;55048;52.220;5.160;2023-05-19T10:27:45;102566.41;;;20.94;39.05
68230;BME280;55048;52.220;5.160;2023-05-19T10:30:17;102572.44;;;21.11;39.18
68230;BME280;55048;52.220;5.160;2023-05-19T10:32:44;102507.50;;;21.06;38.38
68230;BME280;55048;52.220;5.160;2023-05-19T10:35:13;102564.47;;;21.52;37.97
68230;BME280;55048;52.220;5.160;2023-05-19T10:46:29;102554.84;;;21.08;38.18
68230;BME280;55048;52.220;5.160;2023-05-19T10:48:55;102545.59;;;20.89;37.91
68230;BME280;55048;52.220;5.160;2023-05-19T10:51:29;102536.78;;;20.56;38.93
68230;BME280;55048;52.220;5.160;2023-05-19T10:53:55;102501.81;;;20.45;37.99
68230;BME280;55048;52.220;5.160;2023-05-19T10:56:30;102492.06;;;20.38;36.50
68230;BME280;55048;52.220;5.160;2023-05-19T10:58:59;102512.84;;;20.91;36.39
68230;BME280;55048;52.220;5.160;2023-05-19T11:01:30;102538.81;;;20.92;37.12
68230;BME280;55048;52.220;5.160;2023-05-19T11:04:03;102513.41;;;20.98;35.89
68230;BME280;55048;52.220;5.160;2023-05-19T11:06:31;102514.47;;;20.92;36.74
68230;BME280;55048;52.220;5.160;2023-05-19T11:09:08;102542.94;;;21.09;36.10
68230;BME280;55048;52.220;5.160;2023-05-19T11:11:47;102558.41;;;21.29;36.30
68230;BME280;55048;52.220;5.160;2023-05-19T11:14:18;102507.75;;;21.04;36.31
68230;BME280;55048;52.220;5.160;2023-05-19T11:16:48;102478.53;;;21.06;35.91
68230;BME280;55048;52.220;5.160;2023-05-19T11:19:31;102542.78;;;21.42;36.07
68230;BME280;55048;52.220;5.160;2023-05-19T11:22:26;102527.66;;;21.46;36.27
68230;BME280;55048;52.220;5.160;2023-05-19T11:24:56;102536.59;;;21.61;36.20
68230;BME280;55048;52.220;5.160;2023-05-19T11:27:31;102534.97;;;21.71;36.92
68230;BME280;55048;52.220;5.160;2023-05-19T11:30:07;102535.78;;;21.97;36.42
68230;BME280;55048;52.220;5.160;2023-05-19T11:32:36;102510.31;;;21.62;35.95
68230;BME280;55048;52.220;5.160;2023-05-19T11:35:06;102528.72;;;21.90;34.81
68230;BME280;55048;52.220;5.160;2023-05-19T11:37:32;102488.59;;;21.21;34.30
68230;BME280;55048;52.220;5.160;2023-05-19T11:40:03;102534.13;;;21.45;35.31
68230;BME280;55048;52.220;5.160;2023-05-19T11:42:31;102530.34;;;21.41;35.32
68230;BME280;55048;52.220;5.160;2023-05-19T11:44:58;102524.38;;;21.54;35.17
68230;BME280;55048;52.220;5.160;2023-05-19T11:47:23;102516.81;;;21.76;35.25
68230;BME280;55048;52.220;5.160;2023-05-19T11:49:53;102532.25;;;21.86;35.17
68230;BME280;55048;52.220;5.160;2023-05-19T11:52:24;102528.47;;;21.61;33.78
68230;BME280;55048;52.220;5.160;2023-05-19T11:54:50;102525.75;;;21.67;33.91
68230;BME280;55048;52.220;5.160;2023-05-19T11:57:16;102460.22;;;21.39;34.49
68230;BME280;55048;52.220;5.160;2023-05-19T11:59:42;102491.66;;;21.65;34.15
68230;BME280;55048;52.220;5.160;2023-05-19T12:04:44;102501.66;;;21.85;33.77
68230;BME280;55048;52.220;5.160;2023-05-19T12:07:11;102513.28;;;22.06;34.25
68230;BME280;55048;52.220;5.160;2023-05-19T12:09:38;102501.34;;;22.23;33.77
68230;BME280;55048;52.220;5.160;2023-05-19T12:12:03;102514.91;;;22.23;33.55
68230;BME280;55048;52.220;5.160;2023-05-19T12:14:29;102507.88;;;22.22;34.03
68230;BME280;55048;52.220;5.160;2023-05-19T12:16:56;102511.91;;;22.34;34.14
68230;BME280;55048;52.220;5.160;2023-05-19T12:19:22;102508.66;;;22.32;34.25
68230;BME280;55048;52.220;5.160;2023-05-19T12:21:51;102501.09;;;22.29;34.20
68230;BME280;55048;52.220;5.160;2023-05-19T12:24:18;102463.16;;;22.09;33.78
68230;BME280;55048;52.220;5.160;2023-05-19T12:26:44;102500.78;;;22.41;33.57
68230;BME280;55048;52.220;5.160;2023-05-19T12:29:12;102491.06;;;22.30;34.26
68230;BME280;55048;52.220;5.160;2023-05-19T12:31:37;102478.00;;;22.37;34.26
68230;BME280;55048;52.220;5.160;2023-05-19T12:34:03;102453.13;;;22.14;34.41
68230;BME280;55048;52.220;5.160;2023-05-19T12:36:30;102487.53;;;22.24;34.15
68230;BME280;55048;52.220;5.160;2023-05-19T12:38:56;102476.44;;;22.26;35.68
68230;BME280;55048;52.220;5.160;2023-05-19T12:41:25;102475.25;;;22.47;34.65
68230;BME280;55048;52.220;5.160;2023-05-19T12:43:53;102486.09;;;22.57;34.86
68230;BME280;55048;52.220;5.160;2023-05-19T12:46:18;102479.84;;;22.52;34.07
68230;BME280;55048;52.220;5.160;2023-05-19T12:48:45;102473.63;;;22.51;34.58
68230;BME280;55048;52.220;5.160;2023-05-19T12:51:18;102486.06;;;22.62;34.02
68230;BME280;55048;52.220;5.160;2023-05-19T12:53:44;102474.38;;;22.67;34.01
68230;BME280;55048;52.220;5.160;2023-05-19T12:56:14;102483.16;;;22.44;33.72
68230;BME280;55048;52.220;5.160;2023-05-19T12:58:40;102465.00;;;22.29;34.45
68230;BME280;55048;52.220;5.160;2023-05-19T13:01:13;102371.69;;;21.70;35.03
68230;BME280;55048;52.220;5.160;2023-05-19T13:03:40;102467.19;;;22.32;34.87
68230;BME280;55048;52.220;5.160;2023-05-19T13:06:08;102471.28;;;22.29;34.47
68230;BME280;55048;52.220;5.160;2023-05-19T13:08:36;102457.47;;;22.26;33.91
68230;BME280;55048;52.220;5.160;2023-05-19T13:11:01;102465.28;;;22.32;33.60
68230;BME280;55048;52.220;5.160;2023-05-19T13:13:27;102455.25;;;22.43;33.73
68230;BME280;55048;52.220;5.160;2023-05-19T13:15:52;102458.22;;;22.41;33.67
68230;BME280;55048;52.220;5.160;2023-05-19T13:18:18;102461.50;;;22.38;34.51
68230;BME280;55048;52.220;5.160;2023-05-19T13:20:44;102467.16;;;22.42;33.86
68230;BME280;55048;52.220;5.160;2023-05-19T13:23:11;102404.34;;;22.25;33.51
68230;BME280;55048;52.220;5.160;2023-05-19T13:25:38;102384.81;;;22.28;33.31
68230;BME280;55048;52.220;5.160;2023-05-19T13:28:03;102453.28;;;22.54;32.55